<?xml version="1.0" encoding="UTF-8" standalone="no" ?>
<gpx xmlns="http://www.topografix.com/GPX/1/1" xmlns:xsi="http://www.w3.org/2001/XMLSchema-instance" xsi:schemaLocation="http://www.topografix.com/GPX/1/1 http://www.topografix.com/GPX/1/1/gpx.xsd" version="1.1" creator="VisuGPX - https://www.visugpx.com">
  <metadata>
    <name>Le Vieux Noyers et la Chapelle Saint-Claude</name>
  </metadata>
  <wpt lat="44.16865" lon="5.82908">
    <ele>561.4</ele>
    <name><![CDATA[Parking Noyers-sur-Jabron]]></name>
  </wpt>
  <wpt lat="44.1756" lon="5.82865">
    <ele>679.3</ele>
    <name><![CDATA[Croisement route goudronnée]]></name>
  </wpt>
  <wpt lat="44.18456" lon="5.82785">
    <ele>826.3</ele>
    <name><![CDATA[Panneau en bois]]></name>
  </wpt>
  <wpt lat="44.18885" lon="5.82445">
    <ele>848.6</ele>
    <name><![CDATA[Lauche]]></name>
  </wpt>
  <wpt lat="44.18788" lon="5.81705">
    <ele>845.9</ele>
    <name><![CDATA[Rivas]]></name>
  </wpt>
  <wpt lat="44.16861" lon="5.82911">
    <ele>560.6</ele>
    <name><![CDATA[Parking Noyers-sur-Jabron]]></name>
  </wpt>
  <trk>
    <name><![CDATA[Le Vieux Noyers et la Chapelle Saint-Claude]]></name>
    <extensions>
      <line xmlns="http://www.topografix.com/GPX/gpx_style/0/2">
        <color>0000FF</color>
        <width>4</width>
      </line>
    </extensions>
    <trkseg>
      <trkpt lat="44.16865" lon="5.82908">
        <ele>558</ele>
        <time>2020-01-05T11:16:46+01:00</time>
      </trkpt>
      <trkpt lat="44.16865" lon="5.82908">
        <ele>558</ele>
        <time>2020-01-05T11:16:46+01:00</time>
      </trkpt>
      <trkpt lat="44.16877" lon="5.8289">
        <ele>559</ele>
        <time>2021-07-14T17:27:01+02:00</time>
      </trkpt>
      <trkpt lat="44.16892" lon="5.82902">
        <ele>560</ele>
        <time>2020-01-05T11:19:12+01:00</time>
      </trkpt>
      <trkpt lat="44.16903" lon="5.82895">
        <ele>561</ele>
        <time>2020-01-05T11:20:20+01:00</time>
      </trkpt>
      <trkpt lat="44.16911" lon="5.82882">
        <ele>563</ele>
        <time>2020-01-05T11:20:50+01:00</time>
      </trkpt>
      <trkpt lat="44.1693" lon="5.82876">
        <ele>569</ele>
        <time>2020-01-05T11:21:07+01:00</time>
      </trkpt>
      <trkpt lat="44.16966" lon="5.82881">
        <ele>576</ele>
        <time>2020-01-05T11:21:51+01:00</time>
      </trkpt>
      <trkpt lat="44.17002" lon="5.8289">
        <ele>582</ele>
        <time>2020-01-05T11:22:11+01:00</time>
      </trkpt>
      <trkpt lat="44.17028" lon="5.829">
        <ele>589</ele>
        <time>2020-01-05T11:22:48+01:00</time>
      </trkpt>
      <trkpt lat="44.17051" lon="5.82907">
        <ele>595</ele>
        <time>2020-01-05T11:23:11+01:00</time>
      </trkpt>
      <trkpt lat="44.1706" lon="5.82903">
        <ele>598</ele>
        <time>2020-01-05T11:23:54+01:00</time>
      </trkpt>
      <trkpt lat="44.17083" lon="5.82886">
        <ele>604</ele>
        <time>2020-01-05T11:24:37+01:00</time>
      </trkpt>
      <trkpt lat="44.17103" lon="5.82883">
        <ele>607</ele>
        <time>2020-01-05T11:24:56+01:00</time>
      </trkpt>
      <trkpt lat="44.17121" lon="5.82876">
        <ele>610</ele>
        <time>2020-01-05T11:25:21+01:00</time>
      </trkpt>
      <trkpt lat="44.17149" lon="5.82881">
        <ele>613</ele>
        <time>2020-01-05T11:25:43+01:00</time>
      </trkpt>
      <trkpt lat="44.17172" lon="5.82889">
        <ele>614</ele>
        <time>2020-01-05T11:26:05+01:00</time>
      </trkpt>
      <trkpt lat="44.17192" lon="5.82906">
        <ele>615</ele>
        <time>2020-01-05T11:26:30+01:00</time>
      </trkpt>
      <trkpt lat="44.17199" lon="5.82926">
        <ele>615</ele>
        <time>2020-01-05T11:26:53+01:00</time>
      </trkpt>
      <trkpt lat="44.17201" lon="5.8296">
        <ele>615</ele>
        <time>2021-07-14T17:28:26+02:00</time>
      </trkpt>
      <trkpt lat="44.17213" lon="5.82972">
        <ele>619</ele>
        <time>2020-01-05T11:27:25+01:00</time>
      </trkpt>
      <trkpt lat="44.1723" lon="5.82956">
        <ele>624</ele>
        <time>2020-01-05T11:28:38+01:00</time>
      </trkpt>
      <trkpt lat="44.17248" lon="5.82942">
        <ele>629</ele>
        <time>2020-01-05T11:29:02+01:00</time>
      </trkpt>
      <trkpt lat="44.17277" lon="5.82929">
        <ele>633</ele>
        <time>2020-01-05T11:29:39+01:00</time>
      </trkpt>
      <trkpt lat="44.17294" lon="5.82939">
        <ele>638</ele>
        <time>2020-01-05T11:30:14+01:00</time>
      </trkpt>
      <trkpt lat="44.1732" lon="5.82929">
        <ele>644</ele>
        <time>2020-01-05T11:30:43+01:00</time>
      </trkpt>
      <trkpt lat="44.17336" lon="5.82923">
        <ele>648</ele>
        <time>2020-01-05T11:31:14+01:00</time>
      </trkpt>
      <trkpt lat="44.17361" lon="5.82925">
        <ele>653</ele>
        <time>2020-01-05T11:31:45+01:00</time>
      </trkpt>
      <trkpt lat="44.17381" lon="5.82909">
        <ele>657</ele>
        <time>2020-01-05T11:32:13+01:00</time>
      </trkpt>
      <trkpt lat="44.17407" lon="5.82904">
        <ele>662</ele>
        <time>2020-01-05T11:32:36+01:00</time>
      </trkpt>
      <trkpt lat="44.1743" lon="5.82901">
        <ele>665</ele>
        <time>2020-01-05T11:33:10+01:00</time>
      </trkpt>
      <trkpt lat="44.17451" lon="5.82891">
        <ele>669</ele>
        <time>2020-01-05T11:33:36+01:00</time>
      </trkpt>
      <trkpt lat="44.1747" lon="5.82886">
        <ele>673</ele>
        <time>2020-01-05T11:34:00+01:00</time>
      </trkpt>
      <trkpt lat="44.17494" lon="5.82879">
        <ele>678</ele>
        <time>2020-01-05T11:34:25+01:00</time>
      </trkpt>
      <trkpt lat="44.17516" lon="5.82877">
        <ele>681</ele>
        <time>2020-01-05T11:34:48+01:00</time>
      </trkpt>
      <trkpt lat="44.17537" lon="5.8287">
        <ele>684</ele>
        <time>2020-01-05T11:35:20+01:00</time>
      </trkpt>
      <trkpt lat="44.1756" lon="5.82865">
        <ele>686</ele>
        <time>2020-01-05T11:36:17+01:00</time>
      </trkpt>
      <trkpt lat="44.17582" lon="5.82862">
        <ele>688</ele>
        <time>2020-01-05T11:36:39+01:00</time>
      </trkpt>
      <trkpt lat="44.17606" lon="5.82855">
        <ele>691</ele>
        <time>2020-01-05T11:36:56+01:00</time>
      </trkpt>
      <trkpt lat="44.17631" lon="5.82848">
        <ele>694</ele>
        <time>2020-01-05T11:37:16+01:00</time>
      </trkpt>
      <trkpt lat="44.17652" lon="5.82844">
        <ele>696</ele>
        <time>2020-01-05T11:37:40+01:00</time>
      </trkpt>
      <trkpt lat="44.17674" lon="5.82839">
        <ele>698</ele>
        <time>2020-01-05T11:38:00+01:00</time>
      </trkpt>
      <trkpt lat="44.17697" lon="5.82834">
        <ele>699</ele>
        <time>2020-01-05T11:38:22+01:00</time>
      </trkpt>
      <trkpt lat="44.17719" lon="5.82829">
        <ele>698</ele>
        <time>2020-01-05T11:38:41+01:00</time>
      </trkpt>
      <trkpt lat="44.17745" lon="5.82826">
        <ele>698</ele>
        <time>2020-01-05T11:39:02+01:00</time>
      </trkpt>
      <trkpt lat="44.17768" lon="5.82826">
        <ele>701</ele>
        <time>2020-01-05T11:39:23+01:00</time>
      </trkpt>
      <trkpt lat="44.17794" lon="5.82825">
        <ele>703</ele>
        <time>2020-01-05T11:39:44+01:00</time>
      </trkpt>
      <trkpt lat="44.17816" lon="5.82827">
        <ele>707</ele>
        <time>2020-01-05T11:40:04+01:00</time>
      </trkpt>
      <trkpt lat="44.17836" lon="5.82825">
        <ele>708</ele>
        <time>2020-01-05T11:40:24+01:00</time>
      </trkpt>
      <trkpt lat="44.17861" lon="5.82823">
        <ele>711</ele>
        <time>2020-01-05T11:40:43+01:00</time>
      </trkpt>
      <trkpt lat="44.17883" lon="5.82819">
        <ele>715</ele>
        <time>2020-01-05T11:41:03+01:00</time>
      </trkpt>
      <trkpt lat="44.17905" lon="5.82813">
        <ele>718</ele>
        <time>2020-01-05T11:41:28+01:00</time>
      </trkpt>
      <trkpt lat="44.17924" lon="5.82805">
        <ele>720</ele>
        <time>2020-01-05T11:43:57+01:00</time>
      </trkpt>
      <trkpt lat="44.17942" lon="5.82789">
        <ele>723</ele>
        <time>2020-01-05T11:44:14+01:00</time>
      </trkpt>
      <trkpt lat="44.17957" lon="5.82768">
        <ele>725</ele>
        <time>2020-01-05T11:44:34+01:00</time>
      </trkpt>
      <trkpt lat="44.17973" lon="5.82747">
        <ele>728</ele>
        <time>2020-01-05T11:44:54+01:00</time>
      </trkpt>
      <trkpt lat="44.18" lon="5.8273">
        <ele>730</ele>
        <time>2020-01-05T11:45:12+01:00</time>
      </trkpt>
      <trkpt lat="44.18028" lon="5.82711">
        <ele>731</ele>
        <time>2020-01-05T11:45:32+01:00</time>
      </trkpt>
      <trkpt lat="44.18051" lon="5.827">
        <ele>732</ele>
        <time>2020-01-05T11:45:51+01:00</time>
      </trkpt>
      <trkpt lat="44.18072" lon="5.82693">
        <ele>734</ele>
        <time>2020-01-05T11:46:09+01:00</time>
      </trkpt>
      <trkpt lat="44.18095" lon="5.82684">
        <ele>737</ele>
        <time>2020-01-05T11:46:29+01:00</time>
      </trkpt>
      <trkpt lat="44.18115" lon="5.82679">
        <ele>740</ele>
        <time>2020-01-05T11:47:16+01:00</time>
      </trkpt>
      <trkpt lat="44.18136" lon="5.82672">
        <ele>739</ele>
        <time>2020-01-05T11:48:14+01:00</time>
      </trkpt>
      <trkpt lat="44.18163" lon="5.82691">
        <ele>749</ele>
        <time>2020-01-05T11:48:33+01:00</time>
      </trkpt>
      <trkpt lat="44.1818" lon="5.8269">
        <ele>751</ele>
        <time>2020-01-05T11:48:52+01:00</time>
      </trkpt>
      <trkpt lat="44.18198" lon="5.82681">
        <ele>750</ele>
        <time>2020-01-05T11:49:13+01:00</time>
      </trkpt>
      <trkpt lat="44.18226" lon="5.82669">
        <ele>752</ele>
        <time>2020-01-05T11:49:33+01:00</time>
      </trkpt>
      <trkpt lat="44.18252" lon="5.82657">
        <ele>753</ele>
        <time>2020-01-05T11:49:51+01:00</time>
      </trkpt>
      <trkpt lat="44.1827" lon="5.82654">
        <ele>755</ele>
        <time>2020-01-05T11:50:13+01:00</time>
      </trkpt>
      <trkpt lat="44.18288" lon="5.8265">
        <ele>757</ele>
        <time>2020-01-05T11:50:31+01:00</time>
      </trkpt>
      <trkpt lat="44.18312" lon="5.82644">
        <ele>759</ele>
        <time>2020-01-05T11:50:51+01:00</time>
      </trkpt>
      <trkpt lat="44.18336" lon="5.82639">
        <ele>761</ele>
        <time>2020-01-05T11:51:08+01:00</time>
      </trkpt>
      <trkpt lat="44.18358" lon="5.82638">
        <ele>765</ele>
        <time>2020-01-05T11:53:12+01:00</time>
      </trkpt>
      <trkpt lat="44.18376" lon="5.82626">
        <ele>766</ele>
        <time>2020-01-05T11:53:34+01:00</time>
      </trkpt>
      <trkpt lat="44.18394" lon="5.8261">
        <ele>766</ele>
        <time>2020-01-05T11:54:35+01:00</time>
      </trkpt>
      <trkpt lat="44.18412" lon="5.82592">
        <ele>769</ele>
        <time>2020-01-05T11:54:53+01:00</time>
      </trkpt>
      <trkpt lat="44.18424" lon="5.82571">
        <ele>773</ele>
        <time>2020-01-05T11:55:15+01:00</time>
      </trkpt>
      <trkpt lat="44.1842" lon="5.82549">
        <ele>772</ele>
        <time>2020-01-05T11:55:30+01:00</time>
      </trkpt>
      <trkpt lat="44.18417" lon="5.82517">
        <ele>773</ele>
        <time>2020-01-05T11:55:48+01:00</time>
      </trkpt>
      <trkpt lat="44.1842" lon="5.82487">
        <ele>774</ele>
        <time>2020-01-05T11:56:07+01:00</time>
      </trkpt>
      <trkpt lat="44.18428" lon="5.82459">
        <ele>778</ele>
        <time>2020-01-05T11:56:26+01:00</time>
      </trkpt>
      <trkpt lat="44.18432" lon="5.82428">
        <ele>778</ele>
        <time>2020-01-05T11:56:42+01:00</time>
      </trkpt>
      <trkpt lat="44.1844" lon="5.82398">
        <ele>780</ele>
        <time>2020-01-05T11:57:00+01:00</time>
      </trkpt>
      <trkpt lat="44.18449" lon="5.82364">
        <ele>781</ele>
        <time>2020-01-05T12:01:38+01:00</time>
      </trkpt>
      <trkpt lat="44.18459" lon="5.82336">
        <ele>783</ele>
        <time>2020-01-05T12:02:25+01:00</time>
      </trkpt>
      <trkpt lat="44.18467" lon="5.82306">
        <ele>785</ele>
        <time>2020-01-05T12:02:45+01:00</time>
      </trkpt>
      <trkpt lat="44.18476" lon="5.82276">
        <ele>785</ele>
        <time>2020-01-05T12:03:04+01:00</time>
      </trkpt>
      <trkpt lat="44.18484" lon="5.82261">
        <ele>787</ele>
        <time>2021-07-14T17:34:06+02:00</time>
      </trkpt>
      <trkpt lat="44.18489" lon="5.82274">
        <ele>789</ele>
        <time>2020-01-05T12:03:29+01:00</time>
      </trkpt>
      <trkpt lat="44.18485" lon="5.82316">
        <ele>792</ele>
        <time>2020-01-05T12:03:48+01:00</time>
      </trkpt>
      <trkpt lat="44.1848" lon="5.8235">
        <ele>793</ele>
        <time>2020-01-05T12:04:08+01:00</time>
      </trkpt>
      <trkpt lat="44.18485" lon="5.82384">
        <ele>796</ele>
        <time>2020-01-05T12:04:29+01:00</time>
      </trkpt>
      <trkpt lat="44.1849" lon="5.82413">
        <ele>798</ele>
        <time>2020-01-05T12:04:49+01:00</time>
      </trkpt>
      <trkpt lat="44.18494" lon="5.82446">
        <ele>799</ele>
        <time>2020-01-05T12:05:08+01:00</time>
      </trkpt>
      <trkpt lat="44.18509" lon="5.82471">
        <ele>800</ele>
        <time>2020-01-05T12:05:30+01:00</time>
      </trkpt>
      <trkpt lat="44.18529" lon="5.82477">
        <ele>801</ele>
        <time>2020-01-05T12:05:49+01:00</time>
      </trkpt>
      <trkpt lat="44.18541" lon="5.82452">
        <ele>804</ele>
        <time>2020-01-05T12:06:12+01:00</time>
      </trkpt>
      <trkpt lat="44.18545" lon="5.82438">
        <ele>805</ele>
        <time>2021-07-14T17:34:56+02:00</time>
      </trkpt>
      <trkpt lat="44.18561" lon="5.82437">
        <ele>807</ele>
        <time>2020-01-05T12:07:00+01:00</time>
      </trkpt>
      <trkpt lat="44.18581" lon="5.82453">
        <ele>809</ele>
        <time>2020-01-05T12:07:20+01:00</time>
      </trkpt>
      <trkpt lat="44.18592" lon="5.82463">
        <ele>810</ele>
        <time>2021-07-14T17:35:11+02:00</time>
      </trkpt>
      <trkpt lat="44.18596" lon="5.82478">
        <ele>811</ele>
        <time>2020-01-05T12:07:59+01:00</time>
      </trkpt>
      <trkpt lat="44.18601" lon="5.82508">
        <ele>812</ele>
        <time>2020-01-05T12:08:14+01:00</time>
      </trkpt>
      <trkpt lat="44.18602" lon="5.8254">
        <ele>813</ele>
        <time>2020-01-05T12:08:32+01:00</time>
      </trkpt>
      <trkpt lat="44.18597" lon="5.82569">
        <ele>813</ele>
        <time>2020-01-05T12:08:59+01:00</time>
      </trkpt>
      <trkpt lat="44.1859" lon="5.82596">
        <ele>815</ele>
        <time>2020-01-05T12:09:15+01:00</time>
      </trkpt>
      <trkpt lat="44.18579" lon="5.82616">
        <ele>816</ele>
        <time>2020-01-05T12:09:32+01:00</time>
      </trkpt>
      <trkpt lat="44.18558" lon="5.82631">
        <ele>817</ele>
        <time>2020-01-05T12:09:50+01:00</time>
      </trkpt>
      <trkpt lat="44.18536" lon="5.82643">
        <ele>816</ele>
        <time>2020-01-05T12:10:07+01:00</time>
      </trkpt>
      <trkpt lat="44.18516" lon="5.82658">
        <ele>817</ele>
        <time>2020-01-05T12:10:28+01:00</time>
      </trkpt>
      <trkpt lat="44.185" lon="5.82681">
        <ele>820</ele>
        <time>2020-01-05T12:10:50+01:00</time>
      </trkpt>
      <trkpt lat="44.18486" lon="5.82706">
        <ele>823</ele>
        <time>2020-01-05T12:11:08+01:00</time>
      </trkpt>
      <trkpt lat="44.18472" lon="5.82732">
        <ele>826</ele>
        <time>2020-01-05T12:11:26+01:00</time>
      </trkpt>
      <trkpt lat="44.18458" lon="5.82758">
        <ele>829</ele>
        <time>2020-01-05T12:11:44+01:00</time>
      </trkpt>
      <trkpt lat="44.18456" lon="5.82785">
        <ele>832</ele>
        <time>2020-01-05T12:12:02+01:00</time>
      </trkpt>
      <trkpt lat="44.1847" lon="5.82787">
        <ele>834</ele>
        <time>2020-01-05T12:13:01+01:00</time>
      </trkpt>
      <trkpt lat="44.185" lon="5.82773">
        <ele>837</ele>
        <time>2020-01-05T12:13:22+01:00</time>
      </trkpt>
      <trkpt lat="44.18517" lon="5.8277">
        <ele>839</ele>
        <time>2020-01-05T12:13:44+01:00</time>
      </trkpt>
      <trkpt lat="44.18548" lon="5.82759">
        <ele>843</ele>
        <time>2020-01-05T12:14:09+01:00</time>
      </trkpt>
      <trkpt lat="44.18573" lon="5.82753">
        <ele>847</ele>
        <time>2020-01-05T12:14:26+01:00</time>
      </trkpt>
      <trkpt lat="44.18586" lon="5.82757">
        <ele>850</ele>
        <time>2020-01-05T12:14:52+01:00</time>
      </trkpt>
      <trkpt lat="44.18608" lon="5.82763">
        <ele>854</ele>
        <time>2020-01-05T12:15:19+01:00</time>
      </trkpt>
      <trkpt lat="44.18629" lon="5.82774">
        <ele>861</ele>
        <time>2020-01-05T12:15:55+01:00</time>
      </trkpt>
      <trkpt lat="44.18652" lon="5.82781">
        <ele>865</ele>
        <time>2020-01-05T12:17:02+01:00</time>
      </trkpt>
      <trkpt lat="44.18675" lon="5.82779">
        <ele>869</ele>
        <time>2020-01-05T12:22:18+01:00</time>
      </trkpt>
      <trkpt lat="44.18697" lon="5.82771">
        <ele>875</ele>
        <time>2020-01-05T12:24:32+01:00</time>
      </trkpt>
      <trkpt lat="44.18711" lon="5.82746">
        <ele>876</ele>
        <time>2020-01-05T12:26:45+01:00</time>
      </trkpt>
      <trkpt lat="44.18728" lon="5.82734">
        <ele>877</ele>
        <time>2020-01-05T12:29:37+01:00</time>
      </trkpt>
      <trkpt lat="44.18752" lon="5.82724">
        <ele>880</ele>
        <time>2020-01-05T12:31:18+01:00</time>
      </trkpt>
      <trkpt lat="44.18775" lon="5.82713">
        <ele>882</ele>
        <time>2020-01-05T12:31:56+01:00</time>
      </trkpt>
      <trkpt lat="44.18794" lon="5.82703">
        <ele>882</ele>
        <time>2020-01-05T12:33:14+01:00</time>
      </trkpt>
      <trkpt lat="44.18802" lon="5.82692">
        <ele>878</ele>
        <time>2020-01-05T12:34:39+01:00</time>
      </trkpt>
      <trkpt lat="44.18819" lon="5.82669">
        <ele>872</ele>
        <time>2020-01-05T12:37:50+01:00</time>
      </trkpt>
      <trkpt lat="44.18838" lon="5.82652">
        <ele>871</ele>
        <time>2020-01-05T12:38:16+01:00</time>
      </trkpt>
      <trkpt lat="44.18852" lon="5.82626">
        <ele>868</ele>
        <time>2020-01-05T12:38:37+01:00</time>
      </trkpt>
      <trkpt lat="44.18861" lon="5.82597">
        <ele>865</ele>
        <time>2020-01-05T12:38:57+01:00</time>
      </trkpt>
      <trkpt lat="44.1887" lon="5.82567">
        <ele>861</ele>
        <time>2020-01-05T12:39:16+01:00</time>
      </trkpt>
      <trkpt lat="44.18876" lon="5.82536">
        <ele>856</ele>
        <time>2020-01-05T12:39:37+01:00</time>
      </trkpt>
      <trkpt lat="44.18887" lon="5.82507">
        <ele>854</ele>
        <time>2020-01-05T12:39:59+01:00</time>
      </trkpt>
      <trkpt lat="44.18895" lon="5.8249">
        <ele>854</ele>
        <time>2021-07-14T17:38:26+02:00</time>
      </trkpt>
      <trkpt lat="44.18889" lon="5.82476">
        <ele>851</ele>
        <time>2020-01-05T12:40:34+01:00</time>
      </trkpt>
      <trkpt lat="44.18885" lon="5.82445">
        <ele>846</ele>
        <time>2020-01-05T12:43:14+01:00</time>
      </trkpt>
      <trkpt lat="44.18885" lon="5.82417">
        <ele>845</ele>
        <time>2020-01-05T12:44:20+01:00</time>
      </trkpt>
      <trkpt lat="44.18879" lon="5.82387">
        <ele>843</ele>
        <time>2020-01-05T12:44:45+01:00</time>
      </trkpt>
      <trkpt lat="44.18867" lon="5.82355">
        <ele>839</ele>
        <time>2020-01-05T12:45:10+01:00</time>
      </trkpt>
      <trkpt lat="44.18858" lon="5.82319">
        <ele>836</ele>
        <time>2020-01-05T12:45:40+01:00</time>
      </trkpt>
      <trkpt lat="44.18856" lon="5.82286">
        <ele>836</ele>
        <time>2020-01-05T12:46:10+01:00</time>
      </trkpt>
      <trkpt lat="44.18852" lon="5.82265">
        <ele>837</ele>
        <time>2020-01-05T12:46:35+01:00</time>
      </trkpt>
      <trkpt lat="44.18844" lon="5.82233">
        <ele>836</ele>
        <time>2020-01-05T12:46:55+01:00</time>
      </trkpt>
      <trkpt lat="44.18838" lon="5.82204">
        <ele>836</ele>
        <time>2020-01-05T12:47:12+01:00</time>
      </trkpt>
      <trkpt lat="44.1883" lon="5.82172">
        <ele>835</ele>
        <time>2020-01-05T12:47:35+01:00</time>
      </trkpt>
      <trkpt lat="44.18823" lon="5.82138">
        <ele>834</ele>
        <time>2020-01-05T12:48:01+01:00</time>
      </trkpt>
      <trkpt lat="44.18817" lon="5.82104">
        <ele>835</ele>
        <time>2020-01-05T12:48:23+01:00</time>
      </trkpt>
      <trkpt lat="44.18818" lon="5.82077">
        <ele>836</ele>
        <time>2020-01-05T12:48:50+01:00</time>
      </trkpt>
      <trkpt lat="44.18812" lon="5.82047">
        <ele>835</ele>
        <time>2020-01-05T12:49:25+01:00</time>
      </trkpt>
      <trkpt lat="44.18807" lon="5.82019">
        <ele>834</ele>
        <time>2020-01-05T12:49:43+01:00</time>
      </trkpt>
      <trkpt lat="44.18797" lon="5.81985">
        <ele>831</ele>
        <time>2020-01-05T12:50:02+01:00</time>
      </trkpt>
      <trkpt lat="44.18797" lon="5.81953">
        <ele>832</ele>
        <time>2020-01-05T12:50:24+01:00</time>
      </trkpt>
      <trkpt lat="44.18796" lon="5.81921">
        <ele>833</ele>
        <time>2020-01-05T12:50:48+01:00</time>
      </trkpt>
      <trkpt lat="44.18792" lon="5.81888">
        <ele>833</ele>
        <time>2020-01-05T12:51:13+01:00</time>
      </trkpt>
      <trkpt lat="44.18789" lon="5.81858">
        <ele>832</ele>
        <time>2020-01-05T12:51:32+01:00</time>
      </trkpt>
      <trkpt lat="44.18792" lon="5.81825">
        <ele>834</ele>
        <time>2020-01-05T12:52:11+01:00</time>
      </trkpt>
      <trkpt lat="44.18798" lon="5.81794">
        <ele>837</ele>
        <time>2020-01-05T12:52:32+01:00</time>
      </trkpt>
      <trkpt lat="44.18793" lon="5.81769">
        <ele>838</ele>
        <time>2020-01-05T12:53:03+01:00</time>
      </trkpt>
      <trkpt lat="44.18789" lon="5.81737">
        <ele>841</ele>
        <time>2020-01-05T12:53:52+01:00</time>
      </trkpt>
      <trkpt lat="44.18788" lon="5.81705">
        <ele>846</ele>
        <time>2020-01-05T12:54:12+01:00</time>
      </trkpt>
      <trkpt lat="44.18778" lon="5.81677">
        <ele>850</ele>
        <time>2020-01-05T12:54:42+01:00</time>
      </trkpt>
      <trkpt lat="44.18768" lon="5.81648">
        <ele>852</ele>
        <time>2020-01-05T12:55:09+01:00</time>
      </trkpt>
      <trkpt lat="44.18764" lon="5.81617">
        <ele>856</ele>
        <time>2020-01-05T12:55:33+01:00</time>
      </trkpt>
      <trkpt lat="44.18775" lon="5.81589">
        <ele>862</ele>
        <time>2020-01-05T12:56:00+01:00</time>
      </trkpt>
      <trkpt lat="44.18787" lon="5.81563">
        <ele>868</ele>
        <time>2020-01-05T12:56:31+01:00</time>
      </trkpt>
      <trkpt lat="44.18791" lon="5.81535">
        <ele>873</ele>
        <time>2020-01-05T12:56:58+01:00</time>
      </trkpt>
      <trkpt lat="44.18789" lon="5.81499">
        <ele>878</ele>
        <time>2020-01-05T12:57:25+01:00</time>
      </trkpt>
      <trkpt lat="44.18781" lon="5.81469">
        <ele>881</ele>
        <time>2020-01-05T12:57:51+01:00</time>
      </trkpt>
      <trkpt lat="44.18767" lon="5.81443">
        <ele>882</ele>
        <time>2020-01-05T12:58:16+01:00</time>
      </trkpt>
      <trkpt lat="44.18761" lon="5.81413">
        <ele>886</ele>
        <time>2020-01-05T12:58:42+01:00</time>
      </trkpt>
      <trkpt lat="44.18758" lon="5.8138">
        <ele>890</ele>
        <time>2020-01-05T12:59:08+01:00</time>
      </trkpt>
      <trkpt lat="44.18753" lon="5.81349">
        <ele>894</ele>
        <time>2020-01-05T12:59:35+01:00</time>
      </trkpt>
      <trkpt lat="44.18743" lon="5.8132">
        <ele>895</ele>
        <time>2020-01-05T12:59:57+01:00</time>
      </trkpt>
      <trkpt lat="44.18741" lon="5.81289">
        <ele>898</ele>
        <time>2020-01-05T13:00:20+01:00</time>
      </trkpt>
      <trkpt lat="44.18745" lon="5.81255">
        <ele>903</ele>
        <time>2020-01-05T13:00:42+01:00</time>
      </trkpt>
      <trkpt lat="44.18737" lon="5.81226">
        <ele>904</ele>
        <time>2020-01-05T13:01:06+01:00</time>
      </trkpt>
      <trkpt lat="44.18728" lon="5.81196">
        <ele>904</ele>
        <time>2020-01-05T13:01:28+01:00</time>
      </trkpt>
      <trkpt lat="44.18728" lon="5.81152">
        <ele>907</ele>
        <time>2020-01-05T13:01:47+01:00</time>
      </trkpt>
      <trkpt lat="44.18723" lon="5.81125">
        <ele>908</ele>
        <time>2020-01-05T13:02:06+01:00</time>
      </trkpt>
      <trkpt lat="44.18711" lon="5.81102">
        <ele>909</ele>
        <time>2020-01-05T13:02:31+01:00</time>
      </trkpt>
      <trkpt lat="44.18695" lon="5.8108">
        <ele>910</ele>
        <time>2020-01-05T13:02:52+01:00</time>
      </trkpt>
      <trkpt lat="44.1868" lon="5.81056">
        <ele>911</ele>
        <time>2020-01-05T13:03:15+01:00</time>
      </trkpt>
      <trkpt lat="44.18669" lon="5.81029">
        <ele>911</ele>
        <time>2020-01-05T13:03:35+01:00</time>
      </trkpt>
      <trkpt lat="44.18662" lon="5.80997">
        <ele>914</ele>
        <time>2020-01-05T13:03:52+01:00</time>
      </trkpt>
      <trkpt lat="44.18663" lon="5.80968">
        <ele>916</ele>
        <time>2020-01-05T13:04:23+01:00</time>
      </trkpt>
      <trkpt lat="44.1866" lon="5.80934">
        <ele>919</ele>
        <time>2020-01-05T13:04:41+01:00</time>
      </trkpt>
      <trkpt lat="44.18658" lon="5.80895">
        <ele>920</ele>
        <time>2020-01-05T13:05:02+01:00</time>
      </trkpt>
      <trkpt lat="44.1865" lon="5.80866">
        <ele>922</ele>
        <time>2020-01-05T13:05:21+01:00</time>
      </trkpt>
      <trkpt lat="44.18642" lon="5.80842">
        <ele>921</ele>
        <time>2020-01-05T13:05:56+01:00</time>
      </trkpt>
      <trkpt lat="44.18664" lon="5.80845">
        <ele>920</ele>
        <time>2020-01-05T13:29:02+01:00</time>
      </trkpt>
      <trkpt lat="44.18641" lon="5.80845">
        <ele>919.8</ele>
      </trkpt>
      <trkpt lat="44.18651" lon="5.80873">
        <ele>919.1</ele>
      </trkpt>
      <trkpt lat="44.18651" lon="5.80873">
        <ele>919.1</ele>
      </trkpt>
      <trkpt lat="44.18648" lon="5.80867">
        <ele>919.3</ele>
      </trkpt>
      <trkpt lat="44.18639" lon="5.80856">
        <ele>919.7</ele>
      </trkpt>
      <trkpt lat="44.18633" lon="5.80851">
        <ele>920</ele>
      </trkpt>
      <trkpt lat="44.18631" lon="5.80849">
        <ele>920.1</ele>
      </trkpt>
      <trkpt lat="44.18633" lon="5.80851">
        <ele>920</ele>
      </trkpt>
      <trkpt lat="44.18633" lon="5.80869">
        <ele>919.8</ele>
      </trkpt>
      <trkpt lat="44.18633" lon="5.80886">
        <ele>919.6</ele>
      </trkpt>
      <trkpt lat="44.18631" lon="5.80902">
        <ele>919.5</ele>
      </trkpt>
      <trkpt lat="44.18628" lon="5.80918">
        <ele>919.3</ele>
      </trkpt>
      <trkpt lat="44.18626" lon="5.80926">
        <ele>919</ele>
      </trkpt>
      <trkpt lat="44.18625" lon="5.80928">
        <ele>918.9</ele>
      </trkpt>
      <trkpt lat="44.18622" lon="5.80938">
        <ele>918.5</ele>
      </trkpt>
      <trkpt lat="44.18612" lon="5.80957">
        <ele>917.7</ele>
      </trkpt>
      <trkpt lat="44.1861" lon="5.80963">
        <ele>917.5</ele>
      </trkpt>
      <trkpt lat="44.18606" lon="5.80976">
        <ele>916.8</ele>
      </trkpt>
      <trkpt lat="44.18605" lon="5.80983">
        <ele>916.4</ele>
      </trkpt>
      <trkpt lat="44.18605" lon="5.80996">
        <ele>915.7</ele>
      </trkpt>
      <trkpt lat="44.18605" lon="5.81008">
        <ele>914.8</ele>
      </trkpt>
      <trkpt lat="44.18611" lon="5.81035">
        <ele>912.6</ele>
      </trkpt>
      <trkpt lat="44.18612" lon="5.81044">
        <ele>911.8</ele>
      </trkpt>
      <trkpt lat="44.18611" lon="5.81063">
        <ele>910.3</ele>
      </trkpt>
      <trkpt lat="44.1861" lon="5.81085">
        <ele>908.6</ele>
      </trkpt>
      <trkpt lat="44.18607" lon="5.81103">
        <ele>907</ele>
      </trkpt>
      <trkpt lat="44.18604" lon="5.81126">
        <ele>905</ele>
      </trkpt>
      <trkpt lat="44.18598" lon="5.81155">
        <ele>902.4</ele>
      </trkpt>
      <trkpt lat="44.18597" lon="5.81164">
        <ele>901.4</ele>
      </trkpt>
      <trkpt lat="44.18596" lon="5.81174">
        <ele>900.2</ele>
      </trkpt>
      <trkpt lat="44.18597" lon="5.81183">
        <ele>899.1</ele>
      </trkpt>
      <trkpt lat="44.18594" lon="5.81191">
        <ele>897.8</ele>
      </trkpt>
      <trkpt lat="44.18591" lon="5.812">
        <ele>896.5</ele>
      </trkpt>
      <trkpt lat="44.18585" lon="5.81226">
        <ele>892.5</ele>
      </trkpt>
      <trkpt lat="44.18582" lon="5.81237">
        <ele>890.6</ele>
      </trkpt>
      <trkpt lat="44.1858" lon="5.81247">
        <ele>888.9</ele>
      </trkpt>
      <trkpt lat="44.1858" lon="5.81251">
        <ele>888.3</ele>
      </trkpt>
      <trkpt lat="44.18581" lon="5.81255">
        <ele>887.8</ele>
      </trkpt>
      <trkpt lat="44.18582" lon="5.8126">
        <ele>887.1</ele>
      </trkpt>
      <trkpt lat="44.18586" lon="5.81277">
        <ele>884.7</ele>
      </trkpt>
      <trkpt lat="44.1859" lon="5.81294">
        <ele>882.2</ele>
      </trkpt>
      <trkpt lat="44.18595" lon="5.81315">
        <ele>879.1</ele>
      </trkpt>
      <trkpt lat="44.18597" lon="5.81324">
        <ele>877.5</ele>
      </trkpt>
      <trkpt lat="44.18598" lon="5.8135">
        <ele>873.4</ele>
      </trkpt>
      <trkpt lat="44.18599" lon="5.81383">
        <ele>868.2</ele>
      </trkpt>
      <trkpt lat="44.186" lon="5.81398">
        <ele>865.7</ele>
      </trkpt>
      <trkpt lat="44.186" lon="5.81406">
        <ele>864.6</ele>
      </trkpt>
      <trkpt lat="44.18599" lon="5.81409">
        <ele>863.9</ele>
      </trkpt>
      <trkpt lat="44.18596" lon="5.81415">
        <ele>862.9</ele>
      </trkpt>
      <trkpt lat="44.18593" lon="5.8142">
        <ele>861.9</ele>
      </trkpt>
      <trkpt lat="44.1859" lon="5.81423">
        <ele>861.2</ele>
      </trkpt>
      <trkpt lat="44.18584" lon="5.81427">
        <ele>860.1</ele>
      </trkpt>
      <trkpt lat="44.18582" lon="5.81431">
        <ele>859.3</ele>
      </trkpt>
      <trkpt lat="44.18581" lon="5.81436">
        <ele>858.4</ele>
      </trkpt>
      <trkpt lat="44.18582" lon="5.81442">
        <ele>857.4</ele>
      </trkpt>
      <trkpt lat="44.18586" lon="5.81453">
        <ele>855.7</ele>
      </trkpt>
      <trkpt lat="44.18586" lon="5.81455">
        <ele>855.2</ele>
      </trkpt>
      <trkpt lat="44.18586" lon="5.81461">
        <ele>854.3</ele>
      </trkpt>
      <trkpt lat="44.18584" lon="5.81473">
        <ele>852</ele>
      </trkpt>
      <trkpt lat="44.18584" lon="5.81482">
        <ele>850.3</ele>
      </trkpt>
      <trkpt lat="44.18585" lon="5.81495">
        <ele>848</ele>
      </trkpt>
      <trkpt lat="44.18586" lon="5.81502">
        <ele>846.8</ele>
      </trkpt>
      <trkpt lat="44.18587" lon="5.81507">
        <ele>846</ele>
      </trkpt>
      <trkpt lat="44.18588" lon="5.81509">
        <ele>845.6</ele>
      </trkpt>
      <trkpt lat="44.18585" lon="5.81511">
        <ele>844.8</ele>
      </trkpt>
      <trkpt lat="44.18581" lon="5.81511">
        <ele>844.6</ele>
      </trkpt>
      <trkpt lat="44.18567" lon="5.815">
        <ele>846.4</ele>
      </trkpt>
      <trkpt lat="44.18564" lon="5.81498">
        <ele>846.7</ele>
      </trkpt>
      <trkpt lat="44.18558" lon="5.81491">
        <ele>847.6</ele>
      </trkpt>
      <trkpt lat="44.18554" lon="5.81484">
        <ele>848.5</ele>
      </trkpt>
      <trkpt lat="44.18552" lon="5.81483">
        <ele>848.6</ele>
      </trkpt>
      <trkpt lat="44.18548" lon="5.8148">
        <ele>848.8</ele>
      </trkpt>
      <trkpt lat="44.18544" lon="5.81479">
        <ele>848.7</ele>
      </trkpt>
      <trkpt lat="44.18539" lon="5.81482">
        <ele>848</ele>
      </trkpt>
      <trkpt lat="44.18536" lon="5.81486">
        <ele>847.4</ele>
      </trkpt>
      <trkpt lat="44.18533" lon="5.81508">
        <ele>843.4</ele>
      </trkpt>
      <trkpt lat="44.1853" lon="5.81528">
        <ele>838.8</ele>
      </trkpt>
      <trkpt lat="44.18532" lon="5.81537">
        <ele>836.7</ele>
      </trkpt>
      <trkpt lat="44.18539" lon="5.81563">
        <ele>831.3</ele>
      </trkpt>
      <trkpt lat="44.18542" lon="5.81589">
        <ele>826.3</ele>
      </trkpt>
      <trkpt lat="44.18543" lon="5.81608">
        <ele>823.7</ele>
      </trkpt>
      <trkpt lat="44.1854" lon="5.8162">
        <ele>821.8</ele>
      </trkpt>
      <trkpt lat="44.18537" lon="5.8164">
        <ele>818.6</ele>
      </trkpt>
      <trkpt lat="44.18538" lon="5.81646">
        <ele>817.9</ele>
      </trkpt>
      <trkpt lat="44.1854" lon="5.81654">
        <ele>817.1</ele>
      </trkpt>
      <trkpt lat="44.18541" lon="5.81659">
        <ele>816.5</ele>
      </trkpt>
      <trkpt lat="44.1854" lon="5.81666">
        <ele>815.3</ele>
      </trkpt>
      <trkpt lat="44.18531" lon="5.81692">
        <ele>811.2</ele>
      </trkpt>
      <trkpt lat="44.1852" lon="5.81726">
        <ele>805.6</ele>
      </trkpt>
      <trkpt lat="44.18518" lon="5.81732">
        <ele>804.7</ele>
      </trkpt>
      <trkpt lat="44.18518" lon="5.81737">
        <ele>804.2</ele>
      </trkpt>
      <trkpt lat="44.1852" lon="5.8174">
        <ele>804</ele>
      </trkpt>
      <trkpt lat="44.18523" lon="5.81745">
        <ele>803.8</ele>
      </trkpt>
      <trkpt lat="44.18527" lon="5.81756">
        <ele>803</ele>
      </trkpt>
      <trkpt lat="44.18528" lon="5.81763">
        <ele>802</ele>
      </trkpt>
      <trkpt lat="44.18526" lon="5.81769">
        <ele>800.9</ele>
      </trkpt>
      <trkpt lat="44.18521" lon="5.81778">
        <ele>798.9</ele>
      </trkpt>
      <trkpt lat="44.18509" lon="5.81802">
        <ele>794.2</ele>
      </trkpt>
      <trkpt lat="44.18499" lon="5.81825">
        <ele>790.1</ele>
      </trkpt>
      <trkpt lat="44.18499" lon="5.81831">
        <ele>789.1</ele>
      </trkpt>
      <trkpt lat="44.18501" lon="5.8184">
        <ele>788.2</ele>
      </trkpt>
      <trkpt lat="44.18507" lon="5.81848">
        <ele>787.6</ele>
      </trkpt>
      <trkpt lat="44.18513" lon="5.81856">
        <ele>787</ele>
      </trkpt>
      <trkpt lat="44.18517" lon="5.81868">
        <ele>785.8</ele>
      </trkpt>
      <trkpt lat="44.18522" lon="5.81886">
        <ele>783.8</ele>
      </trkpt>
      <trkpt lat="44.18523" lon="5.81895">
        <ele>782.5</ele>
      </trkpt>
      <trkpt lat="44.18523" lon="5.81904">
        <ele>781.3</ele>
      </trkpt>
      <trkpt lat="44.18523" lon="5.81914">
        <ele>779.9</ele>
      </trkpt>
      <trkpt lat="44.18516" lon="5.81937">
        <ele>777.4</ele>
      </trkpt>
      <trkpt lat="44.18508" lon="5.81964">
        <ele>774.6</ele>
      </trkpt>
      <trkpt lat="44.18504" lon="5.81979">
        <ele>773</ele>
      </trkpt>
      <trkpt lat="44.18497" lon="5.81988">
        <ele>771.7</ele>
      </trkpt>
      <trkpt lat="44.18491" lon="5.81996">
        <ele>770.7</ele>
      </trkpt>
      <trkpt lat="44.18488" lon="5.82002">
        <ele>770.3</ele>
      </trkpt>
      <trkpt lat="44.18488" lon="5.82006">
        <ele>770.6</ele>
      </trkpt>
      <trkpt lat="44.18484" lon="5.82009">
        <ele>770.4</ele>
      </trkpt>
      <trkpt lat="44.18483" lon="5.82018">
        <ele>770.8</ele>
      </trkpt>
      <trkpt lat="44.18482" lon="5.82024">
        <ele>771</ele>
      </trkpt>
      <trkpt lat="44.18477" lon="5.82025">
        <ele>770.5</ele>
      </trkpt>
      <trkpt lat="44.18473" lon="5.82026">
        <ele>770.2</ele>
      </trkpt>
      <trkpt lat="44.1847" lon="5.82029">
        <ele>769.9</ele>
      </trkpt>
      <trkpt lat="44.18468" lon="5.82032">
        <ele>769.8</ele>
      </trkpt>
      <trkpt lat="44.18467" lon="5.82036">
        <ele>769.8</ele>
      </trkpt>
      <trkpt lat="44.18464" lon="5.82054">
        <ele>769.8</ele>
      </trkpt>
      <trkpt lat="44.18462" lon="5.8206">
        <ele>769.7</ele>
      </trkpt>
      <trkpt lat="44.1846" lon="5.82067">
        <ele>769.5</ele>
      </trkpt>
      <trkpt lat="44.18457" lon="5.82075">
        <ele>769.1</ele>
      </trkpt>
      <trkpt lat="44.18443" lon="5.82101">
        <ele>766.7</ele>
      </trkpt>
      <trkpt lat="44.1844" lon="5.82109">
        <ele>766.2</ele>
      </trkpt>
      <trkpt lat="44.18437" lon="5.82117">
        <ele>765.7</ele>
      </trkpt>
      <trkpt lat="44.18436" lon="5.8213">
        <ele>765.6</ele>
      </trkpt>
      <trkpt lat="44.18436" lon="5.82143">
        <ele>765.7</ele>
      </trkpt>
      <trkpt lat="44.18435" lon="5.82158">
        <ele>765.7</ele>
      </trkpt>
      <trkpt lat="44.18436" lon="5.82182">
        <ele>766.6</ele>
      </trkpt>
      <trkpt lat="44.18437" lon="5.82191">
        <ele>767.2</ele>
      </trkpt>
      <trkpt lat="44.18439" lon="5.82198">
        <ele>768.1</ele>
      </trkpt>
      <trkpt lat="44.18448" lon="5.82226">
        <ele>771.8</ele>
      </trkpt>
      <trkpt lat="44.1845" lon="5.82237">
        <ele>772.7</ele>
      </trkpt>
      <trkpt lat="44.18451" lon="5.82249">
        <ele>773.3</ele>
      </trkpt>
      <trkpt lat="44.18453" lon="5.82271">
        <ele>774.7</ele>
      </trkpt>
      <trkpt lat="44.18457" lon="5.82291">
        <ele>777.1</ele>
      </trkpt>
      <trkpt lat="44.18457" lon="5.82296">
        <ele>777.4</ele>
      </trkpt>
      <trkpt lat="44.18457" lon="5.82301">
        <ele>777.5</ele>
      </trkpt>
      <trkpt lat="44.18454" lon="5.82311">
        <ele>777</ele>
      </trkpt>
      <trkpt lat="44.1845" lon="5.82327">
        <ele>776.4</ele>
      </trkpt>
      <trkpt lat="44.18443" lon="5.82357">
        <ele>775.5</ele>
      </trkpt>
      <trkpt lat="44.18441" lon="5.82371">
        <ele>775.4</ele>
      </trkpt>
      <trkpt lat="44.18441" lon="5.82375">
        <ele>775.6</ele>
      </trkpt>
      <trkpt lat="44.18441" lon="5.82381">
        <ele>775.9</ele>
      </trkpt>
      <trkpt lat="44.18442" lon="5.82391">
        <ele>776.4</ele>
      </trkpt>
      <trkpt lat="44.18433" lon="5.82421">
        <ele>775</ele>
      </trkpt>
      <trkpt lat="44.18427" lon="5.82444">
        <ele>773.4</ele>
      </trkpt>
      <trkpt lat="44.18424" lon="5.82466">
        <ele>772.7</ele>
      </trkpt>
      <trkpt lat="44.18419" lon="5.82487">
        <ele>771.5</ele>
      </trkpt>
      <trkpt lat="44.18417" lon="5.82496">
        <ele>771</ele>
      </trkpt>
      <trkpt lat="44.18416" lon="5.82506">
        <ele>770.8</ele>
      </trkpt>
      <trkpt lat="44.18416" lon="5.82514">
        <ele>770.9</ele>
      </trkpt>
      <trkpt lat="44.18418" lon="5.82529">
        <ele>771.5</ele>
      </trkpt>
      <trkpt lat="44.18422" lon="5.82548">
        <ele>772.7</ele>
      </trkpt>
      <trkpt lat="44.18423" lon="5.8256">
        <ele>772.9</ele>
      </trkpt>
      <trkpt lat="44.18422" lon="5.82567">
        <ele>772.5</ele>
      </trkpt>
      <trkpt lat="44.1842" lon="5.82571">
        <ele>772.1</ele>
      </trkpt>
      <trkpt lat="44.18419" lon="5.82575">
        <ele>771.6</ele>
      </trkpt>
      <trkpt lat="44.18415" lon="5.82581">
        <ele>770.7</ele>
      </trkpt>
      <trkpt lat="44.18407" lon="5.82591">
        <ele>771.1</ele>
      </trkpt>
      <trkpt lat="44.18398" lon="5.82601">
        <ele>771.8</ele>
      </trkpt>
      <trkpt lat="44.18371" lon="5.82625">
        <ele>772.1</ele>
      </trkpt>
      <trkpt lat="44.18365" lon="5.82629">
        <ele>771.9</ele>
      </trkpt>
      <trkpt lat="44.1836" lon="5.82632">
        <ele>771.4</ele>
      </trkpt>
      <trkpt lat="44.18354" lon="5.82634">
        <ele>770.7</ele>
      </trkpt>
      <trkpt lat="44.18352" lon="5.82634">
        <ele>770.4</ele>
      </trkpt>
      <trkpt lat="44.18348" lon="5.82635">
        <ele>769.7</ele>
      </trkpt>
      <trkpt lat="44.18338" lon="5.82637">
        <ele>768.3</ele>
      </trkpt>
      <trkpt lat="44.18325" lon="5.82639">
        <ele>765.7</ele>
      </trkpt>
      <trkpt lat="44.1831" lon="5.8264">
        <ele>761.9</ele>
      </trkpt>
      <trkpt lat="44.18293" lon="5.82643">
        <ele>758.3</ele>
      </trkpt>
      <trkpt lat="44.1826" lon="5.82653">
        <ele>752.2</ele>
      </trkpt>
      <trkpt lat="44.18235" lon="5.8266">
        <ele>749.5</ele>
      </trkpt>
      <trkpt lat="44.18229" lon="5.82662">
        <ele>749.2</ele>
      </trkpt>
      <trkpt lat="44.18214" lon="5.82669">
        <ele>749.5</ele>
      </trkpt>
      <trkpt lat="44.18192" lon="5.82683">
        <ele>751.1</ele>
      </trkpt>
      <trkpt lat="44.18183" lon="5.82686">
        <ele>750.9</ele>
      </trkpt>
      <trkpt lat="44.1817" lon="5.82686">
        <ele>749.3</ele>
      </trkpt>
      <trkpt lat="44.18161" lon="5.82685">
        <ele>747.5</ele>
      </trkpt>
      <trkpt lat="44.18153" lon="5.82681">
        <ele>744.9</ele>
      </trkpt>
      <trkpt lat="44.18146" lon="5.82675">
        <ele>741.8</ele>
      </trkpt>
      <trkpt lat="44.18142" lon="5.82671">
        <ele>740.2</ele>
      </trkpt>
      <trkpt lat="44.18136" lon="5.82669">
        <ele>738.4</ele>
      </trkpt>
      <trkpt lat="44.18133" lon="5.82668">
        <ele>737.8</ele>
      </trkpt>
      <trkpt lat="44.18126" lon="5.82669">
        <ele>736.9</ele>
      </trkpt>
      <trkpt lat="44.181" lon="5.8268">
        <ele>735.2</ele>
      </trkpt>
      <trkpt lat="44.18094" lon="5.82682">
        <ele>734.8</ele>
      </trkpt>
      <trkpt lat="44.18088" lon="5.82685">
        <ele>734.4</ele>
      </trkpt>
      <trkpt lat="44.18068" lon="5.8269">
        <ele>731.6</ele>
      </trkpt>
      <trkpt lat="44.1805" lon="5.82697">
        <ele>729.7</ele>
      </trkpt>
      <trkpt lat="44.18034" lon="5.82705">
        <ele>728.2</ele>
      </trkpt>
      <trkpt lat="44.18018" lon="5.82714">
        <ele>727</ele>
      </trkpt>
      <trkpt lat="44.1801" lon="5.82718">
        <ele>726.4</ele>
      </trkpt>
      <trkpt lat="44.18006" lon="5.82722">
        <ele>726.5</ele>
      </trkpt>
      <trkpt lat="44.17997" lon="5.82729">
        <ele>726</ele>
      </trkpt>
      <trkpt lat="44.17986" lon="5.82734">
        <ele>724.4</ele>
      </trkpt>
      <trkpt lat="44.1798" lon="5.82738">
        <ele>723.6</ele>
      </trkpt>
      <trkpt lat="44.17968" lon="5.82747">
        <ele>722.4</ele>
      </trkpt>
      <trkpt lat="44.17963" lon="5.82752">
        <ele>722.1</ele>
      </trkpt>
      <trkpt lat="44.17958" lon="5.82759">
        <ele>721.9</ele>
      </trkpt>
      <trkpt lat="44.17953" lon="5.82766">
        <ele>722.1</ele>
      </trkpt>
      <trkpt lat="44.17949" lon="5.82774">
        <ele>722.5</ele>
      </trkpt>
      <trkpt lat="44.17945" lon="5.8278">
        <ele>722.8</ele>
      </trkpt>
      <trkpt lat="44.17935" lon="5.82792">
        <ele>722.9</ele>
      </trkpt>
      <trkpt lat="44.1793" lon="5.82797">
        <ele>722.8</ele>
      </trkpt>
      <trkpt lat="44.17923" lon="5.82802">
        <ele>722.3</ele>
      </trkpt>
      <trkpt lat="44.17916" lon="5.82806">
        <ele>721.6</ele>
      </trkpt>
      <trkpt lat="44.17909" lon="5.82809">
        <ele>720.9</ele>
      </trkpt>
      <trkpt lat="44.17902" lon="5.82811">
        <ele>719.9</ele>
      </trkpt>
      <trkpt lat="44.17891" lon="5.82813">
        <ele>718.1</ele>
      </trkpt>
      <trkpt lat="44.17881" lon="5.82815">
        <ele>716.5</ele>
      </trkpt>
      <trkpt lat="44.17858" lon="5.82819">
        <ele>712.9</ele>
      </trkpt>
      <trkpt lat="44.17834" lon="5.82822">
        <ele>709</ele>
      </trkpt>
      <trkpt lat="44.17818" lon="5.82822">
        <ele>707</ele>
      </trkpt>
      <trkpt lat="44.17786" lon="5.82823">
        <ele>703.2</ele>
      </trkpt>
      <trkpt lat="44.17765" lon="5.82822">
        <ele>700.2</ele>
      </trkpt>
      <trkpt lat="44.17743" lon="5.82822">
        <ele>697.5</ele>
      </trkpt>
      <trkpt lat="44.17726" lon="5.82823">
        <ele>696.1</ele>
      </trkpt>
      <trkpt lat="44.17708" lon="5.82826">
        <ele>695.2</ele>
      </trkpt>
      <trkpt lat="44.17691" lon="5.82831">
        <ele>694.8</ele>
      </trkpt>
      <trkpt lat="44.17674" lon="5.82836">
        <ele>694.1</ele>
      </trkpt>
      <trkpt lat="44.17653" lon="5.82841">
        <ele>691.6</ele>
      </trkpt>
      <trkpt lat="44.17632" lon="5.82845">
        <ele>688.7</ele>
      </trkpt>
      <trkpt lat="44.17615" lon="5.82847">
        <ele>686.3</ele>
      </trkpt>
      <trkpt lat="44.17599" lon="5.82851">
        <ele>684</ele>
      </trkpt>
      <trkpt lat="44.17592" lon="5.82852">
        <ele>683</ele>
      </trkpt>
      <trkpt lat="44.17585" lon="5.82854">
        <ele>681.9</ele>
      </trkpt>
      <trkpt lat="44.1757" lon="5.82859">
        <ele>680.3</ele>
      </trkpt>
      <trkpt lat="44.17563" lon="5.82862">
        <ele>679.5</ele>
      </trkpt>
      <trkpt lat="44.17559" lon="5.82866">
        <ele>679.3</ele>
      </trkpt>
      <trkpt lat="44.17555" lon="5.82863">
        <ele>678.5</ele>
      </trkpt>
      <trkpt lat="44.1755" lon="5.82864">
        <ele>677.8</ele>
      </trkpt>
      <trkpt lat="44.17543" lon="5.82866">
        <ele>677</ele>
      </trkpt>
      <trkpt lat="44.17539" lon="5.82869">
        <ele>676.5</ele>
      </trkpt>
      <trkpt lat="44.17528" lon="5.82871">
        <ele>675.1</ele>
      </trkpt>
      <trkpt lat="44.17525" lon="5.82874">
        <ele>674.7</ele>
      </trkpt>
      <trkpt lat="44.17513" lon="5.82875">
        <ele>673</ele>
      </trkpt>
      <trkpt lat="44.17503" lon="5.82877">
        <ele>671.4</ele>
      </trkpt>
      <trkpt lat="44.17487" lon="5.82879">
        <ele>668.8</ele>
      </trkpt>
      <trkpt lat="44.17471" lon="5.82883">
        <ele>666.2</ele>
      </trkpt>
      <trkpt lat="44.17461" lon="5.82886">
        <ele>664.8</ele>
      </trkpt>
      <trkpt lat="44.17452" lon="5.82889">
        <ele>663.3</ele>
      </trkpt>
      <trkpt lat="44.17432" lon="5.82899">
        <ele>660.2</ele>
      </trkpt>
      <trkpt lat="44.17423" lon="5.82901">
        <ele>658.7</ele>
      </trkpt>
      <trkpt lat="44.17413" lon="5.82901">
        <ele>656.9</ele>
      </trkpt>
      <trkpt lat="44.17409" lon="5.82902">
        <ele>656.1</ele>
      </trkpt>
      <trkpt lat="44.17405" lon="5.82904">
        <ele>655.2</ele>
      </trkpt>
      <trkpt lat="44.174" lon="5.82908">
        <ele>654.3</ele>
      </trkpt>
      <trkpt lat="44.17396" lon="5.82908">
        <ele>653.5</ele>
      </trkpt>
      <trkpt lat="44.17383" lon="5.82909">
        <ele>650.9</ele>
      </trkpt>
      <trkpt lat="44.17378" lon="5.82908">
        <ele>649.8</ele>
      </trkpt>
      <trkpt lat="44.17373" lon="5.82911">
        <ele>649</ele>
      </trkpt>
      <trkpt lat="44.17369" lon="5.82914">
        <ele>648.2</ele>
      </trkpt>
      <trkpt lat="44.17364" lon="5.82918">
        <ele>647.1</ele>
      </trkpt>
      <trkpt lat="44.17358" lon="5.82922">
        <ele>645.7</ele>
      </trkpt>
      <trkpt lat="44.17354" lon="5.82923">
        <ele>644.7</ele>
      </trkpt>
      <trkpt lat="44.1735" lon="5.82924">
        <ele>643.8</ele>
      </trkpt>
      <trkpt lat="44.17341" lon="5.82922">
        <ele>642.1</ele>
      </trkpt>
      <trkpt lat="44.17336" lon="5.82921">
        <ele>641.2</ele>
      </trkpt>
      <trkpt lat="44.17331" lon="5.82921">
        <ele>640.4</ele>
      </trkpt>
      <trkpt lat="44.17327" lon="5.82923">
        <ele>639.6</ele>
      </trkpt>
      <trkpt lat="44.17309" lon="5.82932">
        <ele>636</ele>
      </trkpt>
      <trkpt lat="44.173" lon="5.82936">
        <ele>634.4</ele>
      </trkpt>
      <trkpt lat="44.17296" lon="5.82936">
        <ele>633.8</ele>
      </trkpt>
      <trkpt lat="44.17293" lon="5.82936">
        <ele>633.2</ele>
      </trkpt>
      <trkpt lat="44.17282" lon="5.8293">
        <ele>631.8</ele>
      </trkpt>
      <trkpt lat="44.17278" lon="5.8293">
        <ele>631.1</ele>
      </trkpt>
      <trkpt lat="44.17273" lon="5.8293">
        <ele>630.4</ele>
      </trkpt>
      <trkpt lat="44.17259" lon="5.82934">
        <ele>628</ele>
      </trkpt>
      <trkpt lat="44.17255" lon="5.82936">
        <ele>627.3</ele>
      </trkpt>
      <trkpt lat="44.17243" lon="5.82945">
        <ele>625.4</ele>
      </trkpt>
      <trkpt lat="44.17233" lon="5.82951">
        <ele>623.9</ele>
      </trkpt>
      <trkpt lat="44.17231" lon="5.82953">
        <ele>623.5</ele>
      </trkpt>
      <trkpt lat="44.17229" lon="5.82956">
        <ele>623.1</ele>
      </trkpt>
      <trkpt lat="44.17227" lon="5.82961">
        <ele>622.8</ele>
      </trkpt>
      <trkpt lat="44.17227" lon="5.82966">
        <ele>622.6</ele>
      </trkpt>
      <trkpt lat="44.17227" lon="5.82978">
        <ele>622.3</ele>
      </trkpt>
      <trkpt lat="44.17228" lon="5.82985">
        <ele>622.2</ele>
      </trkpt>
      <trkpt lat="44.17224" lon="5.82987">
        <ele>621.7</ele>
      </trkpt>
      <trkpt lat="44.17221" lon="5.8299">
        <ele>621.2</ele>
      </trkpt>
      <trkpt lat="44.17213" lon="5.83">
        <ele>619.7</ele>
      </trkpt>
      <trkpt lat="44.17205" lon="5.8301">
        <ele>618.3</ele>
      </trkpt>
      <trkpt lat="44.17199" lon="5.83014">
        <ele>617.4</ele>
      </trkpt>
      <trkpt lat="44.17193" lon="5.83016">
        <ele>616.5</ele>
      </trkpt>
      <trkpt lat="44.17183" lon="5.83016">
        <ele>615</ele>
      </trkpt>
      <trkpt lat="44.17179" lon="5.83015">
        <ele>614.4</ele>
      </trkpt>
      <trkpt lat="44.17176" lon="5.83013">
        <ele>613.9</ele>
      </trkpt>
      <trkpt lat="44.17172" lon="5.8301">
        <ele>613.5</ele>
      </trkpt>
      <trkpt lat="44.17169" lon="5.83007">
        <ele>613.1</ele>
      </trkpt>
      <trkpt lat="44.17152" lon="5.82982">
        <ele>611.3</ele>
      </trkpt>
      <trkpt lat="44.17149" lon="5.8298">
        <ele>611</ele>
      </trkpt>
      <trkpt lat="44.17146" lon="5.82979">
        <ele>610.5</ele>
      </trkpt>
      <trkpt lat="44.17142" lon="5.82979">
        <ele>610</ele>
      </trkpt>
      <trkpt lat="44.17139" lon="5.8298">
        <ele>609.5</ele>
      </trkpt>
      <trkpt lat="44.1713" lon="5.82989">
        <ele>607.9</ele>
      </trkpt>
      <trkpt lat="44.1712" lon="5.82995">
        <ele>606.3</ele>
      </trkpt>
      <trkpt lat="44.17095" lon="5.83003">
        <ele>602.6</ele>
      </trkpt>
      <trkpt lat="44.17081" lon="5.83007">
        <ele>600.5</ele>
      </trkpt>
      <trkpt lat="44.17078" lon="5.83009">
        <ele>600</ele>
      </trkpt>
      <trkpt lat="44.17074" lon="5.83014">
        <ele>599.2</ele>
      </trkpt>
      <trkpt lat="44.17062" lon="5.83007">
        <ele>597.5</ele>
      </trkpt>
      <trkpt lat="44.17031" lon="5.82997">
        <ele>592.9</ele>
      </trkpt>
      <trkpt lat="44.17023" lon="5.82995">
        <ele>591.5</ele>
      </trkpt>
      <trkpt lat="44.17011" lon="5.82994">
        <ele>589.6</ele>
      </trkpt>
      <trkpt lat="44.16995" lon="5.82994">
        <ele>586.9</ele>
      </trkpt>
      <trkpt lat="44.16987" lon="5.82992">
        <ele>585.1</ele>
      </trkpt>
      <trkpt lat="44.16982" lon="5.82994">
        <ele>583.8</ele>
      </trkpt>
      <trkpt lat="44.16976" lon="5.82992">
        <ele>582.5</ele>
      </trkpt>
      <trkpt lat="44.16969" lon="5.82989">
        <ele>580.9</ele>
      </trkpt>
      <trkpt lat="44.16959" lon="5.82981">
        <ele>578.7</ele>
      </trkpt>
      <trkpt lat="44.16955" lon="5.8297">
        <ele>577.6</ele>
      </trkpt>
      <trkpt lat="44.16946" lon="5.82958">
        <ele>575.6</ele>
      </trkpt>
      <trkpt lat="44.16939" lon="5.82948">
        <ele>574</ele>
      </trkpt>
      <trkpt lat="44.16933" lon="5.82942">
        <ele>572.8</ele>
      </trkpt>
      <trkpt lat="44.16928" lon="5.82938">
        <ele>571.5</ele>
      </trkpt>
      <trkpt lat="44.16924" lon="5.82935">
        <ele>570.6</ele>
      </trkpt>
      <trkpt lat="44.16919" lon="5.82924">
        <ele>569.5</ele>
      </trkpt>
      <trkpt lat="44.16903" lon="5.82894">
        <ele>568.5</ele>
      </trkpt>
      <trkpt lat="44.16894" lon="5.82897">
        <ele>566.8</ele>
      </trkpt>
      <trkpt lat="44.1689" lon="5.829">
        <ele>565.8</ele>
      </trkpt>
      <trkpt lat="44.16888" lon="5.82898">
        <ele>565.8</ele>
      </trkpt>
    </trkseg>
  </trk>
</gpx>